createdAt,value
2017-09-21T00:00:31.869Z,0.00
2017-09-21T00:01:20.787Z,0.00
2017-09-21T00:02:09.392Z,0.00
2017-09-21T00:02:57.521Z,0.00
2017-09-21T00:03:45.985Z,0.00
2017-09-21T00:04:33.992Z,0.00
2017-09-21T00:05:22.097Z,0.00
2017-09-21T00:06:11.010Z,0.00
2017-09-21T00:06:59.585Z,0.00
2017-09-21T00:07:47.140Z,0.00
2017-09-21T00:08:36.229Z,0.00
2017-09-21T00:09:24.144Z,0.00
2017-09-21T00:10:12.281Z,0.00
2017-09-21T00:11:01.227Z,0.00
2017-09-21T00:11:49.285Z,0.00
2017-09-21T00:12:37.300Z,0.00
2017-09-21T00:13:26.383Z,0.00
2017-09-21T00:14:14.628Z,0.00
2017-09-21T00:15:02.479Z,0.00
2017-09-21T00:15:51.539Z,0.00
2017-09-21T00:16:39.707Z,0.00
2017-09-21T00:17:27.608Z,0.00
2017-09-21T00:18:16.608Z,0.00
2017-09-21T00:19:04.706Z,0.00
2017-09-21T00:19:52.759Z,0.00
2017-09-21T00:20:40.721Z,0.00
2017-09-21T00:21:29.821Z,0.00
2017-09-21T00:22:17.814Z,0.00
2017-09-21T00:23:07.137Z,0.00
2017-09-21T00:23:54.914Z,0.00
2017-09-21T00:24:42.912Z,0.00
2017-09-21T00:25:32.003Z,0.00
2017-09-21T00:26:20.006Z,0.00
2017-09-21T00:27:08.056Z,0.00
2017-09-21T00:27:57.121Z,0.00
2017-09-21T00:28:45.105Z,0.00
2017-09-21T00:29:33.238Z,0.00
2017-09-21T00:30:22.261Z,0.00
2017-09-21T00:31:10.284Z,0.00
2017-09-21T00:31:58.341Z,0.00
2017-09-21T00:32:47.790Z,0.00
2017-09-21T00:33:35.415Z,0.00
2017-09-21T00:34:23.438Z,0.00
2017-09-21T00:35:11.426Z,0.00
2017-09-21T00:36:00.561Z,0.00
2017-09-21T00:36:48.600Z,0.00
2017-09-21T00:37:37.721Z,0.00
2017-09-21T00:38:26.090Z,0.00
2017-09-21T00:39:13.714Z,0.00
2017-09-21T00:40:02.742Z,0.00
2017-09-21T00:40:50.746Z,0.00
2017-09-21T00:41:38.801Z,0.00
2017-09-21T00:42:27.874Z,0.00
2017-09-21T00:43:15.838Z,0.00
2017-09-21T00:44:03.907Z,0.00
2017-09-21T00:44:52.946Z,0.00
2017-09-21T00:45:40.970Z,0.00
2017-09-21T00:46:29.024Z,0.00
2017-09-21T00:47:18.121Z,0.00
2017-09-21T00:48:06.142Z,0.00
2017-09-21T00:48:54.120Z,0.00
2017-09-21T00:49:43.211Z,0.00
2017-09-21T00:50:31.262Z,0.00
2017-09-21T00:51:19.282Z,0.00
2017-09-21T00:52:08.284Z,0.00
2017-09-21T00:52:56.381Z,0.00
2017-09-21T00:53:44.377Z,0.00
2017-09-21T00:54:33.400Z,0.00
2017-09-21T00:55:22.412Z,0.00
2017-09-21T00:56:10.477Z,0.00
2017-09-21T00:56:58.794Z,0.00
2017-09-21T00:57:46.893Z,0.00
2017-09-21T00:58:34.594Z,0.00
2017-09-21T00:59:22.696Z,0.00
2017-09-21T01:00:11.781Z,0.00
2017-09-21T01:00:59.783Z,0.00
2017-09-21T01:01:48.334Z,0.00
2017-09-21T01:02:36.858Z,0.00
2017-09-21T01:03:24.875Z,0.00
2017-09-21T01:04:12.855Z,0.00
2017-09-21T01:05:00.959Z,0.00
2017-09-21T01:05:50.050Z,0.00
2017-09-21T01:06:38.408Z,0.00
2017-09-21T01:07:26.015Z,0.00
2017-09-21T01:08:15.124Z,0.00
2017-09-21T01:09:03.136Z,0.00
2017-09-21T01:09:52.207Z,0.00
2017-09-21T01:10:40.237Z,0.00
2017-09-21T01:11:28.189Z,0.00
2017-09-21T01:12:17.297Z,0.00
2017-09-21T01:13:05.439Z,0.00
2017-09-21T01:13:53.445Z,0.00
2017-09-21T01:14:42.435Z,0.00
2017-09-21T01:15:30.412Z,0.00
2017-09-21T01:16:18.567Z,0.00
2017-09-21T01:17:07.496Z,0.00
2017-09-21T01:17:55.511Z,0.00
2017-09-21T01:18:43.638Z,0.00
2017-09-21T01:19:32.687Z,0.00
2017-09-21T01:20:20.636Z,0.00
2017-09-21T01:21:08.685Z,0.00
2017-09-21T01:21:57.789Z,0.00
2017-09-21T01:22:45.775Z,0.00
2017-09-21T01:23:33.782Z,0.00
2017-09-21T01:24:22.891Z,0.00
2017-09-21T01:25:10.918Z,0.00
2017-09-21T01:25:58.920Z,0.00
2017-09-21T01:26:48.491Z,0.00
2017-09-21T01:27:36.000Z,0.00
2017-09-21T01:28:24.081Z,0.00
2017-09-21T01:29:13.141Z,0.00
2017-09-21T01:30:16.166Z,0.00
2017-09-21T01:30:49.213Z,0.00
2017-09-21T01:31:38.330Z,0.00
2017-09-21T01:32:26.269Z,0.00
2017-09-21T01:33:14.304Z,0.00
2017-09-21T01:34:03.756Z,0.00
2017-09-21T01:34:51.376Z,0.00
2017-09-21T01:35:39.446Z,0.00
2017-09-21T01:36:28.452Z,0.00
2017-09-21T01:37:16.529Z,0.00
2017-09-21T01:38:04.526Z,0.00
2017-09-21T01:38:53.947Z,0.00
2017-09-21T01:39:41.621Z,0.00
2017-09-21T01:40:29.662Z,0.00
2017-09-21T01:41:18.690Z,0.00
2017-09-21T01:42:07.224Z,0.00
2017-09-21T01:42:55.399Z,0.00
2017-09-21T01:43:43.845Z,0.00
2017-09-21T01:44:31.895Z,0.00
2017-09-21T01:45:19.860Z,0.00
2017-09-21T01:46:09.017Z,0.00
2017-09-21T01:46:57.341Z,0.00
2017-09-21T01:47:44.966Z,0.00
2017-09-21T01:48:34.071Z,0.00
2017-09-21T01:49:22.089Z,0.00
2017-09-21T01:50:10.118Z,0.00
2017-09-21T01:50:58.165Z,0.00
2017-09-21T01:51:47.267Z,0.00
2017-09-21T01:52:35.251Z,0.00
2017-09-21T01:53:23.272Z,0.00
2017-09-21T01:54:12.297Z,0.00
2017-09-21T01:55:00.400Z,0.00
2017-09-21T01:55:49.400Z,0.00
2017-09-21T01:56:37.799Z,0.00
2017-09-21T01:57:25.441Z,0.00
2017-09-21T01:58:13.510Z,0.00
2017-09-21T01:59:02.602Z,0.00
2017-09-21T01:59:50.609Z,0.00
2017-09-21T02:00:38.624Z,0.00
2017-09-21T02:01:27.715Z,0.00
2017-09-21T02:02:15.741Z,0.00
2017-09-21T02:03:03.862Z,0.00
2017-09-21T02:03:52.814Z,0.00
2017-09-21T02:04:40.849Z,0.00
2017-09-21T02:05:28.875Z,0.00
2017-09-21T02:06:18.350Z,0.00
2017-09-21T02:07:05.962Z,0.00
2017-09-21T02:07:54.045Z,0.00
2017-09-21T02:08:43.018Z,0.00
2017-09-21T02:09:31.108Z,0.00
2017-09-21T02:10:19.084Z,0.00
2017-09-21T02:11:08.130Z,0.00
2017-09-21T02:11:56.202Z,0.00
2017-09-21T02:12:44.436Z,0.00
2017-09-21T02:13:33.214Z,0.00
2017-09-21T02:14:21.303Z,0.00
2017-09-21T02:15:15.368Z,0.00
2017-09-21T02:16:16.431Z,0.00
2017-09-21T02:17:16.835Z,0.00
2017-09-21T02:18:11.481Z,0.00
2017-09-21T02:19:11.484Z,0.00
2017-09-21T02:20:05.636Z,0.00
2017-09-21T02:21:06.547Z,0.00
2017-09-21T02:22:06.580Z,0.00
2017-09-21T02:23:01.664Z,0.00
2017-09-21T02:24:01.606Z,0.00
2017-09-21T02:24:55.595Z,0.00
2017-09-21T02:25:55.854Z,0.00
2017-09-21T02:26:50.756Z,0.00
2017-09-21T02:27:45.766Z,0.00
2017-09-21T02:28:45.868Z,0.00
2017-09-21T02:29:40.834Z,0.00
2017-09-21T02:30:35.829Z,0.00
2017-09-21T02:31:37.466Z,0.00
2017-09-21T02:32:36.870Z,0.00
2017-09-21T02:33:36.912Z,0.00
2017-09-21T02:34:31.964Z,0.00
2017-09-21T02:35:26.027Z,0.00
2017-09-21T02:36:26.035Z,0.00
2017-09-21T02:37:21.124Z,0.00
2017-09-21T02:38:27.126Z,0.00
2017-09-21T02:39:27.170Z,0.00
2017-09-21T02:40:28.136Z,0.00
2017-09-21T02:41:22.139Z,0.00
2017-09-21T02:42:22.814Z,0.00
2017-09-21T02:43:17.215Z,0.00
2017-09-21T02:44:12.556Z,0.00
2017-09-21T02:45:12.250Z,0.00
2017-09-21T02:46:07.371Z,0.00
2017-09-21T02:47:02.810Z,0.00
2017-09-21T02:48:02.355Z,0.00
2017-09-21T02:48:57.458Z,0.00
2017-09-21T02:49:52.484Z,0.00
2017-09-21T02:50:54.070Z,0.00
2017-09-21T02:51:53.561Z,0.00
2017-09-21T02:52:53.583Z,0.00
2017-09-21T02:53:48.602Z,0.00
2017-09-21T02:54:43.063Z,0.00
2017-09-21T02:55:43.062Z,0.00
2017-09-21T02:56:38.054Z,0.00
2017-09-21T02:57:37.778Z,0.00
2017-09-21T02:58:31.697Z,0.00
2017-09-21T02:59:32.008Z,0.00
2017-09-21T03:00:26.838Z,0.00
2017-09-21T03:01:21.861Z,0.00
2017-09-21T03:02:21.996Z,0.00
2017-09-21T03:03:16.905Z,0.00
2017-09-21T03:04:12.103Z,0.00
2017-09-21T03:05:12.982Z,0.00
2017-09-21T03:06:12.989Z,0.00
2017-09-21T03:07:13.030Z,0.00
2017-09-21T03:08:08.086Z,0.00
2017-09-21T03:09:02.137Z,0.00
2017-09-21T03:10:02.125Z,0.00
2017-09-21T03:10:57.118Z,0.00
2017-09-21T03:11:57.152Z,0.00
2017-09-21T03:12:51.232Z,0.00
2017-09-21T03:13:52.243Z,0.00
2017-09-21T03:14:58.292Z,0.00
2017-09-21T03:15:58.288Z,0.00
2017-09-21T03:16:58.263Z,0.00
2017-09-21T03:17:59.318Z,0.00
2017-09-21T03:18:59.347Z,0.00
2017-09-21T03:19:54.418Z,0.00
2017-09-21T03:21:00.609Z,0.00
2017-09-21T03:21:55.484Z,0.00
2017-09-21T03:22:49.500Z,0.00
2017-09-21T03:23:50.502Z,0.00
2017-09-21T03:24:45.537Z,0.00
2017-09-21T03:25:39.609Z,0.00
2017-09-21T03:26:40.275Z,0.00
2017-09-21T03:27:34.672Z,0.00
2017-09-21T03:28:34.672Z,0.00
2017-09-21T03:29:28.761Z,0.00
2017-09-21T03:30:28.752Z,0.00
2017-09-21T03:31:23.772Z,0.00
2017-09-21T03:32:18.820Z,0.00
2017-09-21T03:33:18.812Z,0.00
2017-09-21T03:34:13.912Z,0.00
2017-09-21T03:35:08.895Z,0.00
2017-09-21T03:36:08.941Z,0.00
2017-09-21T03:37:04.505Z,0.00
2017-09-21T03:37:59.023Z,0.00
2017-09-21T03:39:00.027Z,0.00
2017-09-21T03:40:00.089Z,0.00
2017-09-21T03:41:00.117Z,0.00
2017-09-21T03:41:55.180Z,0.00
2017-09-21T03:42:49.145Z,0.00
2017-09-21T03:43:49.174Z,0.00
2017-09-21T03:44:44.201Z,0.00
2017-09-21T03:45:44.331Z,0.00
2017-09-21T03:46:44.337Z,0.00
2017-09-21T03:47:44.303Z,0.00
2017-09-21T03:48:38.330Z,0.00
2017-09-21T03:49:38.361Z,0.00
2017-09-21T03:50:33.407Z,0.00
2017-09-21T03:51:33.432Z,0.00
2017-09-21T03:52:22.474Z,0.00
2017-09-21T03:53:10.505Z,0.00
2017-09-21T03:53:58.585Z,0.00
2017-09-21T03:54:46.733Z,0.00
2017-09-21T03:55:35.917Z,0.00
2017-09-21T03:56:23.719Z,0.00
2017-09-21T03:57:11.705Z,0.00
2017-09-21T03:58:00.745Z,0.00
2017-09-21T03:58:48.786Z,0.00
2017-09-21T03:59:36.862Z,0.00
2017-09-21T04:00:24.909Z,0.00
2017-09-21T04:01:13.905Z,0.00
2017-09-21T04:02:01.947Z,0.00
2017-09-21T04:02:51.573Z,0.00
2017-09-21T04:03:39.055Z,0.00
2017-09-21T04:04:27.048Z,0.00
2017-09-21T04:05:16.106Z,0.00
2017-09-21T04:06:04.108Z,0.00
2017-09-21T04:06:52.814Z,0.00
2017-09-21T04:07:40.229Z,0.00
2017-09-21T04:08:28.433Z,0.00
2017-09-21T04:09:22.299Z,0.00
2017-09-21T04:10:16.347Z,0.00
2017-09-21T04:11:16.654Z,0.00
2017-09-21T04:12:16.637Z,0.00
2017-09-21T04:13:10.491Z,0.00
2017-09-21T04:14:10.433Z,0.00
2017-09-21T04:15:05.467Z,0.00
2017-09-21T04:16:00.507Z,0.00
2017-09-21T04:17:01.553Z,0.00
2017-09-21T04:18:01.597Z,0.00
2017-09-21T04:19:01.588Z,0.00
2017-09-21T04:20:01.852Z,0.00
2017-09-21T04:21:02.635Z,0.00
2017-09-21T04:22:03.717Z,0.00
2017-09-21T04:22:57.722Z,0.00
2017-09-21T04:23:57.727Z,0.00
2017-09-21T04:24:52.783Z,0.00
2017-09-21T04:25:47.746Z,0.00
2017-09-21T04:26:47.898Z,0.00
2017-09-21T04:27:43.219Z,0.00
2017-09-21T04:28:43.033Z,0.00
2017-09-21T04:29:42.927Z,0.00
2017-09-21T04:30:49.134Z,0.00
2017-09-21T04:31:44.222Z,0.00
2017-09-21T04:32:38.068Z,0.00
2017-09-21T04:33:38.112Z,0.00
2017-09-21T04:34:38.054Z,0.00
2017-09-21T04:35:33.160Z,0.00
2017-09-21T04:36:33.141Z,0.00
2017-09-21T04:37:33.216Z,0.00
2017-09-21T04:38:27.183Z,0.00
2017-09-21T04:39:15.222Z,0.00
2017-09-21T04:40:09.299Z,0.00
2017-09-21T04:41:09.387Z,0.00
2017-09-21T04:42:04.330Z,0.00
2017-09-21T04:42:59.382Z,0.00
2017-09-21T04:43:59.444Z,0.00
2017-09-21T04:44:54.459Z,0.00
2017-09-21T04:45:49.495Z,0.00
2017-09-21T04:46:50.050Z,0.00
2017-09-21T04:47:44.557Z,0.00
2017-09-21T04:48:39.588Z,0.00
2017-09-21T04:49:45.592Z,0.00
2017-09-21T04:50:39.631Z,0.00
2017-09-21T04:51:39.989Z,0.00
2017-09-21T04:52:34.667Z,0.00
2017-09-21T04:53:34.701Z,0.00
2017-09-21T04:54:34.824Z,0.00
2017-09-21T04:55:34.716Z,0.00
2017-09-21T04:56:34.820Z,0.00
2017-09-21T04:57:40.767Z,0.00
2017-09-21T04:58:40.799Z,0.00
2017-09-21T04:59:41.871Z,0.00
2017-09-21T05:00:41.913Z,0.00
2017-09-21T05:01:42.705Z,0.00
2017-09-21T05:02:35.947Z,0.00
2017-09-21T05:03:36.272Z,0.00
2017-09-21T05:04:31.027Z,0.00
2017-09-21T05:05:26.052Z,0.00
2017-09-21T05:06:26.127Z,0.00
2017-09-21T05:07:21.283Z,0.00
2017-09-21T05:08:16.199Z,0.00
2017-09-21T05:09:10.216Z,0.00
2017-09-21T05:10:10.206Z,0.00
2017-09-21T05:11:05.274Z,0.00
2017-09-21T05:12:00.305Z,0.00
2017-09-21T05:13:00.347Z,0.00
2017-09-21T05:13:55.380Z,0.00
2017-09-21T05:14:51.030Z,0.00
2017-09-21T05:15:44.450Z,0.00
2017-09-21T05:16:45.258Z,0.01
2017-09-21T05:17:39.547Z,0.01
2017-09-21T05:18:39.552Z,0.01
2017-09-21T05:19:39.681Z,0.01
2017-09-21T05:20:39.596Z,0.01
2017-09-21T05:21:39.575Z,0.01
2017-09-21T05:22:39.618Z,0.01
2017-09-21T05:23:33.704Z,0.01
2017-09-21T05:24:33.735Z,0.01
2017-09-21T05:25:28.735Z,0.01
2017-09-21T05:26:28.830Z,0.01
2017-09-21T05:27:29.830Z,0.01
2017-09-21T05:28:30.816Z,0.02
2017-09-21T05:29:32.094Z,0.02
2017-09-21T05:30:31.928Z,0.02
2017-09-21T05:31:32.064Z,0.02
2017-09-21T05:32:25.979Z,0.02
2017-09-21T05:33:25.986Z,0.02
2017-09-21T05:34:21.012Z,0.02
2017-09-21T05:35:15.991Z,0.02
2017-09-21T05:36:10.090Z,0.02
2017-09-21T05:37:10.101Z,0.02
2017-09-21T05:38:05.158Z,0.02
2017-09-21T05:39:00.219Z,0.02
2017-09-21T05:40:00.213Z,0.02
2017-09-21T05:40:55.253Z,0.03
2017-09-21T05:41:55.321Z,0.03
2017-09-21T05:42:56.291Z,0.03
2017-09-21T05:43:57.316Z,0.03
2017-09-21T05:44:51.385Z,0.03
2017-09-21T05:45:51.446Z,0.03
2017-09-21T05:46:47.042Z,0.03
2017-09-21T05:47:41.490Z,0.03
2017-09-21T05:48:41.492Z,0.03
2017-09-21T05:49:41.504Z,0.04
2017-09-21T05:50:35.541Z,0.04
2017-09-21T05:51:35.632Z,0.04
2017-09-21T05:52:30.661Z,0.04
2017-09-21T05:53:30.988Z,0.04
2017-09-21T05:54:31.729Z,0.04
2017-09-21T05:55:31.824Z,0.04
2017-09-21T05:56:26.710Z,0.04
2017-09-21T05:57:26.829Z,0.04
2017-09-21T05:58:21.886Z,0.05
2017-09-21T05:59:17.252Z,0.05
2017-09-21T06:00:16.829Z,0.05
2017-09-21T06:01:16.953Z,0.05
2017-09-21T06:02:10.934Z,0.05
2017-09-21T06:03:11.932Z,0.05
2017-09-21T06:04:12.250Z,0.05
2017-09-21T06:05:07.449Z,0.05
2017-09-21T06:06:13.062Z,0.05
2017-09-21T06:07:08.092Z,0.05
2017-09-21T06:08:02.131Z,0.05
2017-09-21T06:09:02.184Z,0.06
2017-09-21T06:09:57.346Z,0.06
2017-09-21T06:10:53.030Z,0.06
2017-09-21T06:11:53.206Z,0.06
2017-09-21T06:12:54.293Z,0.06
2017-09-21T06:14:00.312Z,0.06
2017-09-21T06:14:54.842Z,0.06
2017-09-21T06:15:55.717Z,0.07
2017-09-21T06:16:50.373Z,0.07
2017-09-21T06:17:50.423Z,0.07
2017-09-21T06:18:50.498Z,0.07
2017-09-21T06:19:50.487Z,0.07
2017-09-21T06:20:50.531Z,0.08
2017-09-21T06:21:50.489Z,0.08
2017-09-21T06:22:50.588Z,0.08
2017-09-21T06:23:50.743Z,0.08
2017-09-21T06:24:50.643Z,0.08
2017-09-21T06:25:50.663Z,0.08
2017-09-21T06:26:50.677Z,0.08
2017-09-21T06:27:50.759Z,0.08
2017-09-21T06:28:50.732Z,0.09
2017-09-21T06:29:50.810Z,0.09
2017-09-21T06:30:50.814Z,0.09
2017-09-21T06:31:50.840Z,0.09
2017-09-21T06:32:50.952Z,0.09
2017-09-21T06:33:50.915Z,0.09
2017-09-21T06:34:50.980Z,0.10
2017-09-21T06:35:51.036Z,0.10
2017-09-21T06:36:51.052Z,0.10
2017-09-21T06:37:51.007Z,0.10
2017-09-21T06:38:51.101Z,0.11
2017-09-21T06:39:51.157Z,0.11
2017-09-21T06:40:51.147Z,0.11
2017-09-21T06:41:51.110Z,0.12
2017-09-21T06:42:51.184Z,0.12
2017-09-21T06:43:51.214Z,0.12
2017-09-21T06:44:51.661Z,0.13
2017-09-21T06:45:51.307Z,0.14
2017-09-21T06:46:57.332Z,0.14
2017-09-21T06:47:52.390Z,0.14
2017-09-21T06:48:46.403Z,0.15
2017-09-21T06:49:46.770Z,0.15
2017-09-21T06:50:42.038Z,0.15
2017-09-21T06:51:36.513Z,0.15
2017-09-21T06:52:36.499Z,0.15
2017-09-21T06:53:31.575Z,0.16
2017-09-21T06:54:26.644Z,0.16
2017-09-21T06:55:20.607Z,0.17
2017-09-21T06:56:21.657Z,0.17
2017-09-21T06:57:16.757Z,0.17
2017-09-21T06:58:16.789Z,0.17
2017-09-21T06:59:16.853Z,0.18
2017-09-21T07:00:16.842Z,0.18
2017-09-21T07:01:16.882Z,0.18
2017-09-21T07:02:16.912Z,0.18
2017-09-21T07:03:16.908Z,0.19
2017-09-21T07:04:17.525Z,0.20
2017-09-21T07:05:23.608Z,0.20
2017-09-21T07:06:18.435Z,0.20
2017-09-21T07:07:12.371Z,0.21
2017-09-21T07:08:12.763Z,0.22
2017-09-21T07:09:06.417Z,0.23
2017-09-21T07:09:54.517Z,0.25
2017-09-21T07:10:48.787Z,0.25
2017-09-21T07:11:48.962Z,0.26
2017-09-21T07:12:48.346Z,0.27
2017-09-21T07:13:48.418Z,0.27
2017-09-21T07:14:43.402Z,0.25
2017-09-21T07:15:31.466Z,0.23
2017-09-21T07:16:25.970Z,0.21
2017-09-21T07:17:13.900Z,0.21
2017-09-21T07:18:08.629Z,0.21
2017-09-21T07:19:03.664Z,0.21
2017-09-21T07:20:04.130Z,0.21
2017-09-21T07:20:59.197Z,0.21
2017-09-21T07:21:54.077Z,0.22
2017-09-21T07:22:48.399Z,0.21
2017-09-21T07:23:36.339Z,0.22
2017-09-21T07:24:29.931Z,0.22
2017-09-21T07:25:23.910Z,0.22
2017-09-21T07:26:18.999Z,0.22
2017-09-21T07:27:07.041Z,0.22
2017-09-21T07:28:08.140Z,0.23
2017-09-21T07:28:57.109Z,0.23
2017-09-21T07:29:52.166Z,0.24
2017-09-21T07:30:52.555Z,0.25
2017-09-21T07:31:46.876Z,0.26
2017-09-21T07:32:35.511Z,0.27
2017-09-21T07:33:29.338Z,0.27
2017-09-21T07:34:29.380Z,0.28
2017-09-21T07:35:18.817Z,0.27
2017-09-21T07:36:13.498Z,0.27
2017-09-21T07:37:08.875Z,0.27
2017-09-21T07:38:03.930Z,0.27
2017-09-21T07:39:03.628Z,0.33
2017-09-21T07:39:58.674Z,0.34
2017-09-21T07:40:53.792Z,0.34
2017-09-21T07:41:53.739Z,0.34
2017-09-21T07:43:00.338Z,0.34
2017-09-21T07:43:55.363Z,0.34
2017-09-21T07:44:43.448Z,0.34
2017-09-21T07:45:37.908Z,0.34
2017-09-21T07:46:33.841Z,0.35
2017-09-21T07:47:28.182Z,0.35
2017-09-21T07:48:17.651Z,0.35
2017-09-21T07:49:06.312Z,0.36
2017-09-21T07:49:55.197Z,0.36
2017-09-21T07:50:49.380Z,0.36
2017-09-21T07:51:44.687Z,0.36
2017-09-21T07:52:33.307Z,0.36
2017-09-21T07:53:27.653Z,0.36
2017-09-21T07:54:15.603Z,0.36
2017-09-21T07:55:05.046Z,0.36
2017-09-21T07:55:52.890Z,0.37
2017-09-21T07:56:47.235Z,0.37
2017-09-21T07:57:34.612Z,0.37
2017-09-21T07:58:22.688Z,0.37
2017-09-21T07:59:10.745Z,0.38
2017-09-21T08:00:05.166Z,0.38
2017-09-21T08:01:05.841Z,0.38
2017-09-21T08:01:53.828Z,0.38
2017-09-21T08:02:48.120Z,0.38
2017-09-21T08:03:36.054Z,0.38
2017-09-21T08:04:36.072Z,0.38
2017-09-21T08:05:30.064Z,0.39
2017-09-21T08:06:24.149Z,0.40
2017-09-21T08:07:18.348Z,0.40
2017-09-21T08:08:18.217Z,0.40
2017-09-21T08:09:12.281Z,0.40
2017-09-21T08:10:06.378Z,0.40
2017-09-21T08:11:01.406Z,0.40
2017-09-21T08:11:56.712Z,0.40
2017-09-21T08:12:45.534Z,0.41
2017-09-21T08:13:45.488Z,0.40
2017-09-21T08:14:39.603Z,0.40
2017-09-21T08:15:39.627Z,0.41
2017-09-21T08:16:33.690Z,0.41
2017-09-21T08:17:27.739Z,0.42
2017-09-21T08:18:28.040Z,0.42
2017-09-21T08:19:22.399Z,0.42
2017-09-21T08:20:16.469Z,0.42
2017-09-21T08:21:09.923Z,0.42
2017-09-21T08:22:10.027Z,0.42
2017-09-21T08:23:04.989Z,0.42
2017-09-21T08:23:54.380Z,0.41
2017-09-21T08:24:42.136Z,0.41
2017-09-21T08:25:30.208Z,0.41
2017-09-21T08:26:19.208Z,0.40
2017-09-21T08:27:07.316Z,0.40
2017-09-21T08:28:02.315Z,0.42
2017-09-21T08:29:03.930Z,0.43
2017-09-21T08:29:57.434Z,0.43
2017-09-21T08:30:53.019Z,0.43
2017-09-21T08:31:48.241Z,0.44
2017-09-21T08:32:37.038Z,0.44
2017-09-21T08:33:37.121Z,0.44
2017-09-21T08:34:31.700Z,0.44
2017-09-21T08:35:25.751Z,0.45
2017-09-21T08:36:14.841Z,0.45
2017-09-21T08:37:09.915Z,0.45
2017-09-21T08:38:09.898Z,0.45
2017-09-21T08:39:09.910Z,0.46
2017-09-21T08:40:05.657Z,0.46
2017-09-21T08:40:53.630Z,0.46
2017-09-21T08:41:47.799Z,0.47
2017-09-21T08:42:41.356Z,0.47
2017-09-21T08:43:30.530Z,0.48
2017-09-21T08:44:25.290Z,0.47
2017-09-21T08:45:25.429Z,0.48
2017-09-21T08:46:14.743Z,0.49
2017-09-21T08:47:03.440Z,0.49
2017-09-21T08:47:52.501Z,0.49
2017-09-21T08:48:46.905Z,0.49
2017-09-21T08:49:48.102Z,0.49
2017-09-21T08:50:42.116Z,0.49
2017-09-21T08:51:36.229Z,0.49
2017-09-21T08:52:36.187Z,0.50
2017-09-21T08:53:30.229Z,0.50
2017-09-21T08:54:23.838Z,0.50
2017-09-21T08:55:12.922Z,0.50
2017-09-21T08:56:08.526Z,0.50
2017-09-21T08:57:02.219Z,0.51
2017-09-21T08:57:50.161Z,0.51
2017-09-21T08:58:39.669Z,0.51
2017-09-21T08:59:34.197Z,0.51
2017-09-21T09:00:28.413Z,0.50
2017-09-21T09:01:29.459Z,0.51
2017-09-21T09:02:23.992Z,0.51
2017-09-21T09:03:18.040Z,0.51
2017-09-21T09:04:12.914Z,0.51
2017-09-21T09:05:06.886Z,0.51
2017-09-21T09:06:01.101Z,0.51
2017-09-21T09:06:54.870Z,0.51
2017-09-21T09:07:54.690Z,0.50
2017-09-21T09:08:49.169Z,0.50
2017-09-21T09:09:44.344Z,0.50
2017-09-21T09:10:44.476Z,0.51
2017-09-21T09:11:32.438Z,0.51
2017-09-21T09:12:27.287Z,0.52
2017-09-21T09:13:27.101Z,0.52
2017-09-21T09:14:21.618Z,0.53
2017-09-21T09:15:21.319Z,0.53
2017-09-21T09:16:10.723Z,0.53
2017-09-21T09:17:04.783Z,0.52
2017-09-21T09:17:58.781Z,0.52
2017-09-21T09:18:46.824Z,0.52
2017-09-21T09:19:41.866Z,0.53
2017-09-21T09:20:35.943Z,0.54
2017-09-21T09:21:24.978Z,0.54
2017-09-21T09:22:19.080Z,0.54
2017-09-21T09:23:14.152Z,0.54
2017-09-21T09:24:15.192Z,0.54
2017-09-21T09:25:03.212Z,0.54
2017-09-21T09:25:57.300Z,0.54
2017-09-21T09:26:52.383Z,0.53
2017-09-21T09:27:47.331Z,0.53
2017-09-21T09:28:42.468Z,0.54
2017-09-21T09:29:36.482Z,0.54
2017-09-21T09:30:31.552Z,0.54
2017-09-21T09:31:31.604Z,0.55
2017-09-21T09:32:19.683Z,0.54
2017-09-21T09:33:13.738Z,0.54
2017-09-21T09:34:01.797Z,0.55
2017-09-21T09:34:49.793Z,0.55
2017-09-21T09:35:38.925Z,0.56
2017-09-21T09:36:33.645Z,0.55
2017-09-21T09:37:22.664Z,0.56
2017-09-21T09:38:17.041Z,0.56
2017-09-21T09:39:11.210Z,0.56
2017-09-21T09:40:05.210Z,0.55
2017-09-21T09:40:59.257Z,0.56
2017-09-21T09:41:47.412Z,0.56
2017-09-21T09:42:47.425Z,0.56
2017-09-21T09:43:36.411Z,0.55
2017-09-21T09:44:31.824Z,0.54
2017-09-21T09:45:26.592Z,0.55
2017-09-21T09:46:14.563Z,0.56
2017-09-21T09:47:14.616Z,0.57
2017-09-21T09:48:02.641Z,0.57
2017-09-21T09:48:57.763Z,0.57
2017-09-21T09:49:53.062Z,0.58
2017-09-21T09:50:46.845Z,0.59
2017-09-21T09:51:35.861Z,0.57
2017-09-21T09:52:30.957Z,0.58
2017-09-21T09:53:32.008Z,0.59
2017-09-21T09:54:21.011Z,0.51
2017-09-21T09:55:21.100Z,0.55
2017-09-21T09:56:10.172Z,0.59
2017-09-21T09:56:59.271Z,0.57
2017-09-21T09:57:53.254Z,0.58
2017-09-21T09:58:47.425Z,0.60
2017-09-21T09:59:41.370Z,0.59
2017-09-21T10:00:35.465Z,0.60
2017-09-21T10:01:35.469Z,0.60
2017-09-21T10:02:29.492Z,0.61
2017-09-21T10:03:29.588Z,0.60
2017-09-21T10:04:24.677Z,0.41
2017-09-21T10:05:13.722Z,0.55
2017-09-21T10:06:08.921Z,0.58
2017-09-21T10:07:02.825Z,0.60
2017-09-21T10:08:02.860Z,0.60
2017-09-21T10:08:56.930Z,0.62
2017-09-21T10:09:52.020Z,0.54
2017-09-21T10:10:52.037Z,0.19
2017-09-21T10:11:46.367Z,0.19
2017-09-21T10:12:41.139Z,0.48
2017-09-21T10:13:41.185Z,0.54
2017-09-21T10:14:35.263Z,0.58
2017-09-21T10:15:29.296Z,0.57
2017-09-21T10:16:24.356Z,0.57
2017-09-21T10:17:18.784Z,0.23
2017-09-21T10:18:18.453Z,0.24
2017-09-21T10:19:07.564Z,0.23
2017-09-21T10:20:02.644Z,0.22
2017-09-21T10:20:57.651Z,0.21
2017-09-21T10:21:52.806Z,0.23
2017-09-21T10:22:46.756Z,0.22
2017-09-21T10:23:40.842Z,0.26
2017-09-21T10:24:40.878Z,0.24
2017-09-21T10:25:29.890Z,0.24
2017-09-21T10:26:18.941Z,0.45
2017-09-21T10:27:13.036Z,0.56
2017-09-21T10:28:01.033Z,0.61
2017-09-21T10:28:55.188Z,0.56
2017-09-21T10:29:50.189Z,0.64
2017-09-21T10:30:44.200Z,0.29
2017-09-21T10:31:38.273Z,0.43
2017-09-21T10:32:38.365Z,0.65
2017-09-21T10:33:33.694Z,0.65
2017-09-21T10:34:32.985Z,0.64
2017-09-21T10:35:33.728Z,0.64
2017-09-21T10:36:28.571Z,0.61
2017-09-21T10:37:22.628Z,0.56
2017-09-21T10:38:16.724Z,0.39
2017-09-21T10:39:11.722Z,0.40
2017-09-21T10:40:00.746Z,0.57
2017-09-21T10:40:49.868Z,0.62
2017-09-21T10:41:43.990Z,0.24
2017-09-21T10:42:38.010Z,0.23
2017-09-21T10:43:37.987Z,0.40
2017-09-21T10:44:27.129Z,0.22
2017-09-21T10:45:27.130Z,0.56
2017-09-21T10:46:21.173Z,0.34
2017-09-21T10:47:15.676Z,0.60
2017-09-21T10:48:04.692Z,0.61
2017-09-21T10:48:52.700Z,0.63
2017-09-21T10:49:47.768Z,0.65
2017-09-21T10:50:42.460Z,0.63
2017-09-21T10:51:30.339Z,0.63
2017-09-21T10:52:25.424Z,0.29
2017-09-21T10:53:26.495Z,0.52
2017-09-21T10:54:21.366Z,0.58
2017-09-21T10:55:15.683Z,0.63
2017-09-21T10:56:09.745Z,0.61
2017-09-21T10:56:57.786Z,0.63
2017-09-21T10:57:51.847Z,0.63
2017-09-21T10:58:45.897Z,0.64
2017-09-21T10:59:45.930Z,0.65
2017-09-21T11:00:39.822Z,0.64
2017-09-21T11:01:29.064Z,0.22
2017-09-21T11:02:17.033Z,0.63
2017-09-21T11:03:17.176Z,0.62
2017-09-21T11:04:11.288Z,0.61
2017-09-21T11:05:06.312Z,0.61
2017-09-21T11:06:00.367Z,0.62
2017-09-21T11:06:55.488Z,0.62
2017-09-21T11:07:55.571Z,0.59
2017-09-21T11:08:50.630Z,0.60
2017-09-21T11:09:44.614Z,0.62
2017-09-21T11:10:38.705Z,0.62
2017-09-21T11:11:27.667Z,0.62
2017-09-21T11:12:16.803Z,0.63
2017-09-21T11:13:04.828Z,0.62
2017-09-21T11:13:58.873Z,0.61
2017-09-21T11:14:52.856Z,0.63
2017-09-21T11:15:48.021Z,0.64
2017-09-21T11:16:42.031Z,0.63
2017-09-21T11:17:31.094Z,0.64
2017-09-21T11:18:25.153Z,0.31
2017-09-21T11:19:25.223Z,0.62
2017-09-21T11:20:14.292Z,0.45
2017-09-21T11:21:14.266Z,0.61
2017-09-21T11:22:09.375Z,0.57
2017-09-21T11:23:03.460Z,0.54
2017-09-21T11:23:52.501Z,0.22
2017-09-21T11:24:47.516Z,0.58
2017-09-21T11:25:41.596Z,0.23
2017-09-21T11:26:29.654Z,0.60
2017-09-21T11:27:17.720Z,0.61
2017-09-21T11:28:17.756Z,0.61
2017-09-21T11:29:06.836Z,0.26
2017-09-21T11:30:00.907Z,0.61
2017-09-21T11:31:00.934Z,0.59
2017-09-21T11:31:55.049Z,0.22
2017-09-21T11:32:49.068Z,0.58
2017-09-21T11:33:38.151Z,0.57
2017-09-21T11:34:32.152Z,0.59
2017-09-21T11:35:26.262Z,0.58
2017-09-21T11:36:15.261Z,0.56
2017-09-21T11:37:15.341Z,0.56
2017-09-21T11:38:10.388Z,0.46
2017-09-21T11:38:59.484Z,0.49
2017-09-21T11:39:48.519Z,0.50
2017-09-21T11:40:42.565Z,0.50
2017-09-21T11:41:37.602Z,0.49
2017-09-21T11:42:31.716Z,0.51
2017-09-21T11:43:25.723Z,0.54
2017-09-21T11:44:20.728Z,0.55
2017-09-21T11:45:14.798Z,0.20
2017-09-21T11:46:09.866Z,0.43
2017-09-21T11:47:04.036Z,0.20
2017-09-21T11:47:53.085Z,0.19
2017-09-21T11:48:42.068Z,0.19
2017-09-21T11:49:31.194Z,0.19
2017-09-21T11:50:31.192Z,0.19
2017-09-21T11:51:20.203Z,0.46
2017-09-21T11:52:09.320Z,0.47
2017-09-21T11:52:58.339Z,0.45
2017-09-21T11:53:52.476Z,0.25
2017-09-21T11:54:41.552Z,0.27
2017-09-21T11:55:36.598Z,0.30
2017-09-21T11:56:25.597Z,0.28
2017-09-21T11:57:13.688Z,0.52
2017-09-21T11:58:13.733Z,0.54
2017-09-21T11:59:13.767Z,0.53
2017-09-21T12:00:08.815Z,0.54